sensor_id;sensor_type;location;lat;lon;timestamp;P1;durP1;ratioP1;P2;durP2;ratioP2
32236;SDS011;18726;44.732;10.550;2022-10-16T00:02:34;36.35;;;30.63;;
32236;SDS011;18726;44.732;10.550;2022-10-16T00:05:40;41.33;;;31.73;;
32236;SDS011;18726;44.732;10.550;2022-10-16T00:08:44;38.45;;;30.40;;
32236;SDS011;18726;44.732;10.550;2022-10-16T00:11:49;35.28;;;28.67;;
32236;SDS011;18726;44.732;10.550;2022-10-16T00:14:53;39.38;;;28.70;;
32236;SDS011;18726;44.732;10.550;2022-10-16T00:17:57;26.63;;;21.75;;
32236;SDS011;18726;44.732;10.550;2022-10-16T00:21:04;25.73;;;21.27;;
32236;SDS011;18726;44.732;10.550;2022-10-16T00:24:28;23.02;;;18.35;;
32236;SDS011;18726;44.732;10.550;2022-10-16T00:27:32;31.65;;;22.23;;
32236;SDS011;18726;44.732;10.550;2022-10-16T00:30:37;31.17;;;25.58;;
32236;SDS011;18726;44.732;10.550;2022-10-16T00:33:42;34.88;;;26.65;;
32236;SDS011;18726;44.732;10.550;2022-10-16T00:36:45;25.85;;;20.73;;
32236;SDS011;18726;44.732;10.550;2022-10-16T00:39:49;32.08;;;26.30;;
32236;SDS011;18726;44.732;10.550;2022-10-16T00:42:53;40.17;;;27.25;;
32236;SDS011;18726;44.732;10.550;2022-10-16T00:45:57;28.30;;;23.92;;
32236;SDS011;18726;44.732;10.550;2022-10-16T00:52:18;17.45;;;13.40;;
32236;SDS011;18726;44.732;10.550;2022-10-16T00:55:22;28.63;;;24.17;;
32236;SDS011;18726;44.732;10.550;2022-10-16T00:58:28;37.63;;;27.33;;
32236;SDS011;18726;44.732;10.550;2022-10-16T01:01:32;35.40;;;26.95;;
32236;SDS011;18726;44.732;10.550;2022-10-16T01:04:43;33.10;;;27.45;;
32236;SDS011;18726;44.732;10.550;2022-10-16T01:07:56;30.80;;;26.13;;
32236;SDS011;18726;44.732;10.550;2022-10-16T01:11:25;31.45;;;25.55;;
32236;SDS011;18726;44.732;10.550;2022-10-16T01:14:56;35.70;;;26.48;;
32236;SDS011;18726;44.732;10.550;2022-10-16T01:21:23;28.42;;;22.35;;
32236;SDS011;18726;44.732;10.550;2022-10-16T01:24:33;18.65;;;16.55;;
32236;SDS011;18726;44.732;10.550;2022-10-16T01:27:47;20.92;;;17.00;;
32236;SDS011;18726;44.732;10.550;2022-10-16T01:30:52;20.83;;;14.73;;
32236;SDS011;18726;44.732;10.550;2022-10-16T01:37:53;24.10;;;21.27;;
32236;SDS011;18726;44.732;10.550;2022-10-16T01:41:14;28.25;;;23.67;;
32236;SDS011;18726;44.732;10.550;2022-10-16T01:44:24;16.25;;;13.40;;
32236;SDS011;18726;44.732;10.550;2022-10-16T01:47:31;17.25;;;15.38;;
32236;SDS011;18726;44.732;10.550;2022-10-16T01:50:37;26.15;;;22.15;;
32236;SDS011;18726;44.732;10.550;2022-10-16T01:53:50;25.45;;;22.52;;
32236;SDS011;18726;44.732;10.550;2022-10-16T02:00:03;27.77;;;24.80;;
32236;SDS011;18726;44.732;10.550;2022-10-16T02:03:16;40.15;;;30.30;;
32236;SDS011;18726;44.732;10.550;2022-10-16T02:34:27;36.47;;;29.25;;
32236;SDS011;18726;44.732;10.550;2022-10-16T02:37:34;39.67;;;29.40;;
32236;SDS011;18726;44.732;10.550;2022-10-16T02:40:40;40.63;;;30.23;;
32236;SDS011;18726;44.732;10.550;2022-10-16T02:43:44;36.50;;;29.65;;
32236;SDS011;18726;44.732;10.550;2022-10-16T02:46:48;39.35;;;28.88;;
32236;SDS011;18726;44.732;10.550;2022-10-16T02:49:51;37.50;;;27.90;;
32236;SDS011;18726;44.732;10.550;2022-10-16T02:52:55;30.08;;;25.20;;
32236;SDS011;18726;44.732;10.550;2022-10-16T02:55:59;34.28;;;26.60;;
32236;SDS011;18726;44.732;10.550;2022-10-16T02:59:02;35.70;;;26.67;;
32236;SDS011;18726;44.732;10.550;2022-10-16T03:02:07;35.83;;;27.42;;
32236;SDS011;18726;44.732;10.550;2022-10-16T03:05:12;26.10;;;21.83;;
32236;SDS011;18726;44.732;10.550;2022-10-16T03:08:16;17.98;;;16.20;;
32236;SDS011;18726;44.732;10.550;2022-10-16T03:11:20;31.27;;;25.60;;
32236;SDS011;18726;44.732;10.550;2022-10-16T03:14:24;35.20;;;27.73;;
32236;SDS011;18726;44.732;10.550;2022-10-16T03:17:28;34.30;;;30.00;;
32236;SDS011;18726;44.732;10.550;2022-10-16T03:20:31;34.78;;;28.88;;
32236;SDS011;18726;44.732;10.550;2022-10-16T03:23:35;32.58;;;27.70;;
32236;SDS011;18726;44.732;10.550;2022-10-16T03:26:39;31.38;;;27.92;;
32236;SDS011;18726;44.732;10.550;2022-10-16T03:29:42;36.25;;;28.85;;
32236;SDS011;18726;44.732;10.550;2022-10-16T03:32:46;21.77;;;19.52;;
32236;SDS011;18726;44.732;10.550;2022-10-16T03:35:54;27.15;;;24.05;;
32236;SDS011;18726;44.732;10.550;2022-10-16T03:38:58;19.35;;;17.27;;
32236;SDS011;18726;44.732;10.550;2022-10-16T03:42:01;20.55;;;16.75;;
32236;SDS011;18726;44.732;10.550;2022-10-16T03:45:05;17.13;;;14.38;;
32236;SDS011;18726;44.732;10.550;2022-10-16T03:48:09;20.33;;;18.00;;
32236;SDS011;18726;44.732;10.550;2022-10-16T03:51:13;16.63;;;14.90;;
32236;SDS011;18726;44.732;10.550;2022-10-16T03:54:17;18.70;;;16.80;;
32236;SDS011;18726;44.732;10.550;2022-10-16T03:57:20;15.90;;;14.02;;
32236;SDS011;18726;44.732;10.550;2022-10-16T04:00:24;17.52;;;15.68;;
32236;SDS011;18726;44.732;10.550;2022-10-16T04:03:28;18.60;;;16.60;;
32236;SDS011;18726;44.732;10.550;2022-10-16T04:06:32;29.33;;;23.02;;
32236;SDS011;18726;44.732;10.550;2022-10-16T04:09:36;27.70;;;24.77;;
32236;SDS011;18726;44.732;10.550;2022-10-16T04:12:39;25.73;;;21.02;;
32236;SDS011;18726;44.732;10.550;2022-10-16T04:15:44;18.00;;;15.02;;
32236;SDS011;18726;44.732;10.550;2022-10-16T04:18:48;28.15;;;22.40;;
32236;SDS011;18726;44.732;10.550;2022-10-16T04:21:52;30.65;;;25.73;;
32236;SDS011;18726;44.732;10.550;2022-10-16T04:24:55;34.83;;;27.58;;
32236;SDS011;18726;44.732;10.550;2022-10-16T04:27:59;39.13;;;27.83;;
32236;SDS011;18726;44.732;10.550;2022-10-16T04:31:05;36.80;;;27.63;;
32236;SDS011;18726;44.732;10.550;2022-10-16T04:34:09;32.83;;;28.77;;
32236;SDS011;18726;44.732;10.550;2022-10-16T04:37:13;36.40;;;29.35;;
32236;SDS011;18726;44.732;10.550;2022-10-16T04:40:16;35.92;;;28.50;;
32236;SDS011;18726;44.732;10.550;2022-10-16T04:43:19;38.08;;;29.33;;
32236;SDS011;18726;44.732;10.550;2022-10-16T04:46:23;34.83;;;28.70;;
32236;SDS011;18726;44.732;10.550;2022-10-16T04:49:28;41.22;;;32.88;;
32236;SDS011;18726;44.732;10.550;2022-10-16T04:52:31;40.13;;;29.60;;
32236;SDS011;18726;44.732;10.550;2022-10-16T04:55:34;33.17;;;27.30;;
32236;SDS011;18726;44.732;10.550;2022-10-16T04:58:38;32.95;;;26.85;;
32236;SDS011;18726;44.732;10.550;2022-10-16T05:01:42;34.50;;;28.95;;
32236;SDS011;18726;44.732;10.550;2022-10-16T05:04:46;34.63;;;29.30;;
32236;SDS011;18726;44.732;10.550;2022-10-16T05:07:49;27.75;;;23.65;;
32236;SDS011;18726;44.732;10.550;2022-10-16T05:14:53;18.50;;;16.63;;
32236;SDS011;18726;44.732;10.550;2022-10-16T05:18:01;30.88;;;25.02;;
32236;SDS011;18726;44.732;10.550;2022-10-16T05:21:05;30.45;;;24.48;;
32236;SDS011;18726;44.732;10.550;2022-10-16T05:24:09;34.45;;;24.17;;
32236;SDS011;18726;44.732;10.550;2022-10-16T05:27:13;28.27;;;23.75;;
32236;SDS011;18726;44.732;10.550;2022-10-16T05:30:22;27.35;;;22.73;;
32236;SDS011;18726;44.732;10.550;2022-10-16T05:33:26;36.25;;;26.38;;
32236;SDS011;18726;44.732;10.550;2022-10-16T05:36:29;30.95;;;24.75;;
32236;SDS011;18726;44.732;10.550;2022-10-16T05:39:33;26.02;;;20.98;;
32236;SDS011;18726;44.732;10.550;2022-10-16T05:42:37;38.97;;;31.70;;
32236;SDS011;18726;44.732;10.550;2022-10-16T05:45:40;32.45;;;27.80;;
32236;SDS011;18726;44.732;10.550;2022-10-16T05:48:44;32.10;;;25.27;;
32236;SDS011;18726;44.732;10.550;2022-10-16T05:51:48;27.08;;;22.63;;
32236;SDS011;18726;44.732;10.550;2022-10-16T05:54:51;28.58;;;22.60;;
32236;SDS011;18726;44.732;10.550;2022-10-16T05:57:55;24.90;;;22.23;;
32236;SDS011;18726;44.732;10.550;2022-10-16T06:01:00;30.23;;;24.48;;
32236;SDS011;18726;44.732;10.550;2022-10-16T06:04:10;25.33;;;22.47;;
32236;SDS011;18726;44.732;10.550;2022-10-16T06:07:13;19.35;;;17.45;;
32236;SDS011;18726;44.732;10.550;2022-10-16T06:10:17;29.83;;;25.27;;
32236;SDS011;18726;44.732;10.550;2022-10-16T06:13:21;27.60;;;24.08;;
32236;SDS011;18726;44.732;10.550;2022-10-16T06:16:25;27.50;;;24.58;;
32236;SDS011;18726;44.732;10.550;2022-10-16T06:19:29;27.35;;;22.88;;
32236;SDS011;18726;44.732;10.550;2022-10-16T06:22:32;16.92;;;15.23;;
32236;SDS011;18726;44.732;10.550;2022-10-16T06:25:36;21.52;;;19.08;;
32236;SDS011;18726;44.732;10.550;2022-10-16T06:28:39;22.55;;;20.13;;
32236;SDS011;18726;44.732;10.550;2022-10-16T06:31:43;24.90;;;19.67;;
32236;SDS011;18726;44.732;10.550;2022-10-16T06:34:47;20.08;;;17.98;;
32236;SDS011;18726;44.732;10.550;2022-10-16T06:37:52;19.70;;;15.80;;
32236;SDS011;18726;44.732;10.550;2022-10-16T06:40:56;17.40;;;15.23;;
32236;SDS011;18726;44.732;10.550;2022-10-16T06:44:00;20.80;;;18.33;;
32236;SDS011;18726;44.732;10.550;2022-10-16T06:47:04;24.40;;;18.33;;
32236;SDS011;18726;44.732;10.550;2022-10-16T06:50:08;21.38;;;18.98;;
32236;SDS011;18726;44.732;10.550;2022-10-16T06:53:12;25.42;;;18.75;;
32236;SDS011;18726;44.732;10.550;2022-10-16T06:56:16;18.65;;;16.67;;
32236;SDS011;18726;44.732;10.550;2022-10-16T06:59:20;18.98;;;15.88;;
32236;SDS011;18726;44.732;10.550;2022-10-16T07:02:24;19.13;;;16.55;;
32236;SDS011;18726;44.732;10.550;2022-10-16T07:05:28;18.52;;;16.35;;
32236;SDS011;18726;44.732;10.550;2022-10-16T07:08:35;21.30;;;16.75;;
32236;SDS011;18726;44.732;10.550;2022-10-16T07:11:43;20.05;;;18.00;;
32236;SDS011;18726;44.732;10.550;2022-10-16T07:14:47;22.35;;;18.02;;
32236;SDS011;18726;44.732;10.550;2022-10-16T07:17:51;18.08;;;16.13;;
32236;SDS011;18726;44.732;10.550;2022-10-16T07:21:02;12.65;;;11.40;;
32236;SDS011;18726;44.732;10.550;2022-10-16T07:27:14;11.30;;;10.13;;
32236;SDS011;18726;44.732;10.550;2022-10-16T07:30:18;16.60;;;13.27;;
32236;SDS011;18726;44.732;10.550;2022-10-16T07:33:22;15.25;;;11.77;;
32236;SDS011;18726;44.732;10.550;2022-10-16T07:36:26;12.82;;;11.52;;
32236;SDS011;18726;44.732;10.550;2022-10-16T07:39:31;11.57;;;10.48;;
32236;SDS011;18726;44.732;10.550;2022-10-16T07:42:35;16.05;;;13.07;;
32236;SDS011;18726;44.732;10.550;2022-10-16T07:45:40;17.92;;;15.40;;
32236;SDS011;18726;44.732;10.550;2022-10-16T07:48:51;17.88;;;15.95;;
32236;SDS011;18726;44.732;10.550;2022-10-16T07:51:54;14.65;;;13.18;;
32236;SDS011;18726;44.732;10.550;2022-10-16T07:54:58;15.93;;;13.13;;
32236;SDS011;18726;44.732;10.550;2022-10-16T07:58:01;13.68;;;12.10;;
32236;SDS011;18726;44.732;10.550;2022-10-16T08:01:09;16.35;;;14.40;;
32236;SDS011;18726;44.732;10.550;2022-10-16T08:04:14;15.70;;;12.23;;
32236;SDS011;18726;44.732;10.550;2022-10-16T08:07:17;15.70;;;12.35;;
32236;SDS011;18726;44.732;10.550;2022-10-16T08:10:22;11.63;;;10.45;;
32236;SDS011;18726;44.732;10.550;2022-10-16T08:13:27;15.73;;;11.43;;
32236;SDS011;18726;44.732;10.550;2022-10-16T08:16:31;13.85;;;11.55;;
32236;SDS011;18726;44.732;10.550;2022-10-16T08:19:35;15.27;;;12.45;;
32236;SDS011;18726;44.732;10.550;2022-10-16T08:22:39;16.23;;;11.93;;
32236;SDS011;18726;44.732;10.550;2022-10-16T08:25:43;12.68;;;10.88;;
32236;SDS011;18726;44.732;10.550;2022-10-16T08:28:49;13.57;;;10.80;;
32236;SDS011;18726;44.732;10.550;2022-10-16T08:31:53;11.85;;;10.60;;
32236;SDS011;18726;44.732;10.550;2022-10-16T08:34:57;12.63;;;10.93;;
32236;SDS011;18726;44.732;10.550;2022-10-16T08:38:04;13.23;;;9.85;;
32236;SDS011;18726;44.732;10.550;2022-10-16T08:48:26;13.90;;;11.70;;
32236;SDS011;18726;44.732;10.550;2022-10-16T08:51:37;13.95;;;12.05;;
32236;SDS011;18726;44.732;10.550;2022-10-16T08:54:42;16.77;;;12.43;;
32236;SDS011;18726;44.732;10.550;2022-10-16T08:57:49;17.13;;;13.00;;
32236;SDS011;18726;44.732;10.550;2022-10-16T09:00:54;14.80;;;13.10;;
32236;SDS011;18726;44.732;10.550;2022-10-16T09:07:30;12.32;;;9.13;;
32236;SDS011;18726;44.732;10.550;2022-10-16T09:10:57;11.63;;;9.85;;
32236;SDS011;18726;44.732;10.550;2022-10-16T09:14:18;10.27;;;9.25;;
32236;SDS011;18726;44.732;10.550;2022-10-16T09:23:59;13.50;;;11.93;;
32236;SDS011;18726;44.732;10.550;2022-10-16T09:27:11;15.30;;;13.02;;
32236;SDS011;18726;44.732;10.550;2022-10-16T09:30:17;12.07;;;10.88;;
32236;SDS011;18726;44.732;10.550;2022-10-16T09:33:24;13.63;;;11.35;;
32236;SDS011;18726;44.732;10.550;2022-10-16T09:36:35;17.88;;;10.35;;
32236;SDS011;18726;44.732;10.550;2022-10-16T09:39:48;15.52;;;10.40;;
32236;SDS011;18726;44.732;10.550;2022-10-16T09:42:56;12.88;;;9.68;;
32236;SDS011;18726;44.732;10.550;2022-10-16T09:46:07;10.43;;;7.53;;
32236;SDS011;18726;44.732;10.550;2022-10-16T09:49:25;7.32;;;6.63;;
32236;SDS011;18726;44.732;10.550;2022-10-16T09:52:30;9.30;;;7.40;;
32236;SDS011;18726;44.732;10.550;2022-10-16T09:55:34;7.20;;;6.43;;
32236;SDS011;18726;44.732;10.550;2022-10-16T09:58:38;7.82;;;6.43;;
32236;SDS011;18726;44.732;10.550;2022-10-16T10:01:46;11.45;;;6.05;;
32236;SDS011;18726;44.732;10.550;2022-10-16T10:04:52;12.23;;;8.95;;
32236;SDS011;18726;44.732;10.550;2022-10-16T10:08:03;6.68;;;6.03;;
32236;SDS011;18726;44.732;10.550;2022-10-16T10:17:21;11.00;;;9.93;;
32236;SDS011;18726;44.732;10.550;2022-10-16T10:23:38;10.93;;;9.50;;
32236;SDS011;18726;44.732;10.550;2022-10-16T10:26:44;15.93;;;11.68;;
32236;SDS011;18726;44.732;10.550;2022-10-16T10:29:53;14.43;;;12.95;;
32236;SDS011;18726;44.732;10.550;2022-10-16T10:36:42;21.88;;;16.98;;
32236;SDS011;18726;44.732;10.550;2022-10-16T10:43:12;18.77;;;14.13;;
32236;SDS011;18726;44.732;10.550;2022-10-16T10:46:50;22.95;;;15.00;;
32236;SDS011;18726;44.732;10.550;2022-10-16T10:53:31;21.38;;;16.92;;
32236;SDS011;18726;44.732;10.550;2022-10-16T11:06:17;19.90;;;17.77;;
32236;SDS011;18726;44.732;10.550;2022-10-16T11:12:39;17.02;;;14.13;;
32236;SDS011;18726;44.732;10.550;2022-10-16T11:15:45;17.45;;;15.00;;
32236;SDS011;18726;44.732;10.550;2022-10-16T11:23:00;21.35;;;15.85;;
32236;SDS011;18726;44.732;10.550;2022-10-16T11:25:42;20.55;;;17.50;;
32236;SDS011;18726;44.732;10.550;2022-10-16T11:28:51;24.98;;;16.92;;
32236;SDS011;18726;44.732;10.550;2022-10-16T11:32:03;18.35;;;16.38;;
32236;SDS011;18726;44.732;10.550;2022-10-16T11:35:37;21.65;;;15.10;;
32236;SDS011;18726;44.732;10.550;2022-10-16T11:42:40;25.30;;;17.42;;
32236;SDS011;18726;44.732;10.550;2022-10-16T11:45:51;17.38;;;14.60;;
32236;SDS011;18726;44.732;10.550;2022-10-16T11:49:00;16.75;;;14.02;;
32236;SDS011;18726;44.732;10.550;2022-10-16T11:52:30;29.30;;;18.73;;
32236;SDS011;18726;44.732;10.550;2022-10-16T11:55:43;23.10;;;15.77;;
32236;SDS011;18726;44.732;10.550;2022-10-16T12:05:46;24.42;;;19.52;;
32236;SDS011;18726;44.732;10.550;2022-10-16T12:08:53;21.45;;;18.75;;
32236;SDS011;18726;44.732;10.550;2022-10-16T12:11:57;17.83;;;15.77;;
32236;SDS011;18726;44.732;10.550;2022-10-16T12:15:48;18.95;;;15.88;;
32236;SDS011;18726;44.732;10.550;2022-10-16T12:18:31;17.58;;;15.57;;
32236;SDS011;18726;44.732;10.550;2022-10-16T12:21:34;23.70;;;16.23;;
32236;SDS011;18726;44.732;10.550;2022-10-16T12:24:39;16.17;;;14.15;;
32236;SDS011;18726;44.732;10.550;2022-10-16T12:27:45;23.50;;;17.73;;
32236;SDS011;18726;44.732;10.550;2022-10-16T12:31:02;17.45;;;15.43;;
32236;SDS011;18726;44.732;10.550;2022-10-16T12:34:42;18.48;;;15.07;;
32236;SDS011;18726;44.732;10.550;2022-10-16T12:37:44;11.57;;;10.20;;
32236;SDS011;18726;44.732;10.550;2022-10-16T12:40:56;20.35;;;16.60;;
32236;SDS011;18726;44.732;10.550;2022-10-16T12:44:03;16.80;;;13.00;;
32236;SDS011;18726;44.732;10.550;2022-10-16T12:47:18;13.38;;;11.85;;
32236;SDS011;18726;44.732;10.550;2022-10-16T12:50:39;15.63;;;11.02;;
32236;SDS011;18726;44.732;10.550;2022-10-16T12:53:44;17.92;;;12.25;;
32236;SDS011;18726;44.732;10.550;2022-10-16T13:00:15;14.70;;;10.70;;
32236;SDS011;18726;44.732;10.550;2022-10-16T13:03:43;14.85;;;10.63;;
32236;SDS011;18726;44.732;10.550;2022-10-16T13:06:53;17.63;;;10.18;;
32236;SDS011;18726;44.732;10.550;2022-10-16T13:10:14;12.38;;;9.45;;
32236;SDS011;18726;44.732;10.550;2022-10-16T13:16:50;9.80;;;8.90;;
32236;SDS011;18726;44.732;10.550;2022-10-16T13:23:30;20.20;;;12.02;;
32236;SDS011;18726;44.732;10.550;2022-10-16T13:27:00;10.32;;;9.32;;
32236;SDS011;18726;44.732;10.550;2022-10-16T13:30:16;15.13;;;10.10;;
32236;SDS011;18726;44.732;10.550;2022-10-16T13:36:42;12.02;;;10.77;;
32236;SDS011;18726;44.732;10.550;2022-10-16T13:39:48;12.63;;;9.88;;
32236;SDS011;18726;44.732;10.550;2022-10-16T13:42:53;15.25;;;13.73;;
32236;SDS011;18726;44.732;10.550;2022-10-16T13:45:59;18.55;;;11.05;;
32236;SDS011;18726;44.732;10.550;2022-10-16T13:49:03;14.65;;;11.80;;
32236;SDS011;18726;44.732;10.550;2022-10-16T13:52:19;14.75;;;10.68;;
32236;SDS011;18726;44.732;10.550;2022-10-16T13:55:23;12.90;;;9.50;;
32236;SDS011;18726;44.732;10.550;2022-10-16T13:58:27;12.70;;;11.32;;
32236;SDS011;18726;44.732;10.550;2022-10-16T14:01:35;12.75;;;10.55;;
32236;SDS011;18726;44.732;10.550;2022-10-16T14:04:43;14.52;;;13.00;;
32236;SDS011;18726;44.732;10.550;2022-10-16T14:07:48;17.45;;;14.13;;
32236;SDS011;18726;44.732;10.550;2022-10-16T14:10:56;13.23;;;11.88;;
32236;SDS011;18726;44.732;10.550;2022-10-16T14:14:01;15.68;;;13.90;;
32236;SDS011;18726;44.732;10.550;2022-10-16T14:17:06;11.90;;;10.70;;
32236;SDS011;18726;44.732;10.550;2022-10-16T14:20:24;16.65;;;13.32;;
32236;SDS011;18726;44.732;10.550;2022-10-16T14:23:38;13.75;;;11.10;;
32236;SDS011;18726;44.732;10.550;2022-10-16T14:26:43;20.00;;;13.98;;
32236;SDS011;18726;44.732;10.550;2022-10-16T14:29:47;14.77;;;12.57;;
32236;SDS011;18726;44.732;10.550;2022-10-16T14:33:04;15.65;;;13.25;;
32236;SDS011;18726;44.732;10.550;2022-10-16T14:39:20;17.73;;;13.80;;
32236;SDS011;18726;44.732;10.550;2022-10-16T14:42:27;14.23;;;12.48;;
32236;SDS011;18726;44.732;10.550;2022-10-16T14:45:32;19.88;;;12.35;;
32236;SDS011;18726;44.732;10.550;2022-10-16T14:48:42;10.77;;;9.63;;
32236;SDS011;18726;44.732;10.550;2022-10-16T14:51:47;10.07;;;9.07;;
32236;SDS011;18726;44.732;10.550;2022-10-16T14:54:51;13.50;;;11.15;;
32236;SDS011;18726;44.732;10.550;2022-10-16T14:57:59;13.80;;;12.35;;
32236;SDS011;18726;44.732;10.550;2022-10-16T15:01:03;15.50;;;13.10;;
32236;SDS011;18726;44.732;10.550;2022-10-16T15:04:10;16.23;;;12.85;;
32236;SDS011;18726;44.732;10.550;2022-10-16T15:07:15;14.73;;;11.80;;
32236;SDS011;18726;44.732;10.550;2022-10-16T15:10:23;13.23;;;11.50;;
32236;SDS011;18726;44.732;10.550;2022-10-16T15:13:28;13.85;;;10.73;;
32236;SDS011;18726;44.732;10.550;2022-10-16T15:16:32;12.32;;;10.60;;
32236;SDS011;18726;44.732;10.550;2022-10-16T15:19:36;16.35;;;11.07;;
32236;SDS011;18726;44.732;10.550;2022-10-16T15:22:40;15.57;;;13.07;;
32236;SDS011;18726;44.732;10.550;2022-10-16T15:25:45;18.05;;;13.05;;
32236;SDS011;18726;44.732;10.550;2022-10-16T15:28:50;13.45;;;12.07;;
32236;SDS011;18726;44.732;10.550;2022-10-16T15:31:54;18.63;;;12.27;;
32236;SDS011;18726;44.732;10.550;2022-10-16T15:34:58;11.43;;;8.55;;
32236;SDS011;18726;44.732;10.550;2022-10-16T15:38:01;10.15;;;8.85;;
32236;SDS011;18726;44.732;10.550;2022-10-16T15:41:05;10.45;;;9.45;;
32236;SDS011;18726;44.732;10.550;2022-10-16T15:44:08;16.23;;;13.15;;
32236;SDS011;18726;44.732;10.550;2022-10-16T15:47:12;17.40;;;13.07;;
32236;SDS011;18726;44.732;10.550;2022-10-16T15:50:16;13.10;;;11.35;;
32236;SDS011;18726;44.732;10.550;2022-10-16T15:53:20;10.75;;;9.65;;
32236;SDS011;18726;44.732;10.550;2022-10-16T15:56:24;15.98;;;10.32;;
32236;SDS011;18726;44.732;10.550;2022-10-16T15:59:28;13.27;;;10.15;;
32236;SDS011;18726;44.732;10.550;2022-10-16T16:02:33;13.85;;;10.57;;
32236;SDS011;18726;44.732;10.550;2022-10-16T16:05:37;13.32;;;11.10;;
32236;SDS011;18726;44.732;10.550;2022-10-16T16:08:42;16.02;;;13.13;;
32236;SDS011;18726;44.732;10.550;2022-10-16T16:11:46;17.17;;;13.57;;
32236;SDS011;18726;44.732;10.550;2022-10-16T16:14:50;15.95;;;14.30;;
32236;SDS011;18726;44.732;10.550;2022-10-16T16:17:54;19.17;;;14.30;;
32236;SDS011;18726;44.732;10.550;2022-10-16T16:20:57;17.98;;;13.70;;
32236;SDS011;18726;44.732;10.550;2022-10-16T16:24:01;16.08;;;14.45;;
32236;SDS011;18726;44.732;10.550;2022-10-16T16:27:10;13.95;;;12.52;;
32236;SDS011;18726;44.732;10.550;2022-10-16T16:30:14;18.23;;;14.70;;
32236;SDS011;18726;44.732;10.550;2022-10-16T16:33:18;21.58;;;16.30;;
32236;SDS011;18726;44.732;10.550;2022-10-16T16:36:22;15.73;;;13.15;;
32236;SDS011;18726;44.732;10.550;2022-10-16T16:39:27;22.20;;;17.60;;
32236;SDS011;18726;44.732;10.550;2022-10-16T16:42:31;23.98;;;19.65;;
32236;SDS011;18726;44.732;10.550;2022-10-16T16:45:37;16.95;;;15.20;;
32236;SDS011;18726;44.732;10.550;2022-10-16T16:48:41;19.42;;;15.45;;
32236;SDS011;18726;44.732;10.550;2022-10-16T16:51:45;14.75;;;13.25;;
32236;SDS011;18726;44.732;10.550;2022-10-16T16:54:48;13.65;;;11.15;;
32236;SDS011;18726;44.732;10.550;2022-10-16T16:57:54;12.98;;;11.10;;
32236;SDS011;18726;44.732;10.550;2022-10-16T17:01:00;12.50;;;11.23;;
32236;SDS011;18726;44.732;10.550;2022-10-16T17:04:04;15.75;;;13.02;;
32236;SDS011;18726;44.732;10.550;2022-10-16T17:07:09;11.43;;;10.35;;
32236;SDS011;18726;44.732;10.550;2022-10-16T17:10:13;12.68;;;11.38;;
32236;SDS011;18726;44.732;10.550;2022-10-16T17:13:17;13.10;;;11.80;;
32236;SDS011;18726;44.732;10.550;2022-10-16T17:16:21;17.08;;;13.15;;
32236;SDS011;18726;44.732;10.550;2022-10-16T17:19:26;14.43;;;11.30;;
32236;SDS011;18726;44.732;10.550;2022-10-16T17:22:30;14.02;;;11.05;;
32236;SDS011;18726;44.732;10.550;2022-10-16T17:25:40;14.68;;;12.98;;
32236;SDS011;18726;44.732;10.550;2022-10-16T17:28:45;16.20;;;14.60;;
32236;SDS011;18726;44.732;10.550;2022-10-16T17:31:52;17.02;;;14.35;;
32236;SDS011;18726;44.732;10.550;2022-10-16T17:34:58;16.60;;;14.15;;
32236;SDS011;18726;44.732;10.550;2022-10-16T17:38:02;16.67;;;14.40;;
32236;SDS011;18726;44.732;10.550;2022-10-16T17:41:13;19.35;;;13.60;;
32236;SDS011;18726;44.732;10.550;2022-10-16T17:44:19;18.60;;;16.58;;
32236;SDS011;18726;44.732;10.550;2022-10-16T17:47:23;18.83;;;15.38;;
32236;SDS011;18726;44.732;10.550;2022-10-16T17:50:27;16.88;;;15.15;;
32236;SDS011;18726;44.732;10.550;2022-10-16T17:53:32;15.70;;;14.18;;
32236;SDS011;18726;44.732;10.550;2022-10-16T17:56:38;19.42;;;16.05;;
32236;SDS011;18726;44.732;10.550;2022-10-16T17:59:42;17.92;;;16.00;;
32236;SDS011;18726;44.732;10.550;2022-10-16T18:02:47;17.40;;;15.32;;
32236;SDS011;18726;44.732;10.550;2022-10-16T18:05:53;20.25;;;17.00;;
32236;SDS011;18726;44.732;10.550;2022-10-16T18:08:58;25.35;;;21.25;;
32236;SDS011;18726;44.732;10.550;2022-10-16T18:12:02;28.00;;;22.45;;
32236;SDS011;18726;44.732;10.550;2022-10-16T18:15:06;29.00;;;23.58;;
32236;SDS011;18726;44.732;10.550;2022-10-16T18:18:10;22.75;;;18.88;;
32236;SDS011;18726;44.732;10.550;2022-10-16T18:21:17;20.80;;;17.75;;
32236;SDS011;18726;44.732;10.550;2022-10-16T18:24:23;21.50;;;17.30;;
32236;SDS011;18726;44.732;10.550;2022-10-16T18:27:29;23.52;;;19.98;;
32236;SDS011;18726;44.732;10.550;2022-10-16T18:30:34;27.65;;;18.52;;
32236;SDS011;18726;44.732;10.550;2022-10-16T18:33:38;22.10;;;18.17;;
32236;SDS011;18726;44.732;10.550;2022-10-16T18:36:42;30.85;;;24.83;;
32236;SDS011;18726;44.732;10.550;2022-10-16T18:39:46;22.15;;;19.90;;
32236;SDS011;18726;44.732;10.550;2022-10-16T18:42:51;37.17;;;26.48;;
32236;SDS011;18726;44.732;10.550;2022-10-16T18:45:56;20.08;;;17.40;;
32236;SDS011;18726;44.732;10.550;2022-10-16T18:49:01;25.17;;;20.48;;
32236;SDS011;18726;44.732;10.550;2022-10-16T18:52:06;24.98;;;20.23;;
32236;SDS011;18726;44.732;10.550;2022-10-16T18:55:10;24.10;;;19.90;;
32236;SDS011;18726;44.732;10.550;2022-10-16T19:02:05;25.40;;;19.10;;
32236;SDS011;18726;44.732;10.550;2022-10-16T19:05:09;21.60;;;17.75;;
32236;SDS011;18726;44.732;10.550;2022-10-16T19:08:13;36.72;;;28.08;;
32236;SDS011;18726;44.732;10.550;2022-10-16T19:11:18;37.20;;;30.83;;
32236;SDS011;18726;44.732;10.550;2022-10-16T19:14:23;42.92;;;31.85;;
32236;SDS011;18726;44.732;10.550;2022-10-16T19:17:27;45.28;;;33.20;;
32236;SDS011;18726;44.732;10.550;2022-10-16T19:20:31;49.88;;;36.22;;
32236;SDS011;18726;44.732;10.550;2022-10-16T19:23:35;49.60;;;35.80;;
32236;SDS011;18726;44.732;10.550;2022-10-16T19:26:39;42.00;;;32.65;;
32236;SDS011;18726;44.732;10.550;2022-10-16T19:29:43;39.03;;;31.88;;
32236;SDS011;18726;44.732;10.550;2022-10-16T19:36:25;31.37;;;24.57;;
32236;SDS011;18726;44.732;10.550;2022-10-16T19:39:30;27.35;;;21.83;;
32236;SDS011;18726;44.732;10.550;2022-10-16T19:42:35;30.35;;;25.20;;
32236;SDS011;18726;44.732;10.550;2022-10-16T19:45:39;31.77;;;27.25;;
32236;SDS011;18726;44.732;10.550;2022-10-16T19:48:42;33.58;;;28.30;;
32236;SDS011;18726;44.732;10.550;2022-10-16T19:51:50;28.55;;;23.88;;
32236;SDS011;18726;44.732;10.550;2022-10-16T19:54:54;23.83;;;21.33;;
32236;SDS011;18726;44.732;10.550;2022-10-16T19:58:01;35.33;;;24.13;;
32236;SDS011;18726;44.732;10.550;2022-10-16T20:01:05;31.23;;;26.60;;
32236;SDS011;18726;44.732;10.550;2022-10-16T20:04:09;30.60;;;26.45;;
32236;SDS011;18726;44.732;10.550;2022-10-16T20:07:14;37.60;;;26.00;;
32236;SDS011;18726;44.732;10.550;2022-10-16T20:10:18;28.73;;;24.27;;
32236;SDS011;18726;44.732;10.550;2022-10-16T20:13:23;28.58;;;23.25;;
32236;SDS011;18726;44.732;10.550;2022-10-16T20:16:27;21.65;;;16.92;;